Time;durP1;ratioP1;P1;durP2;ratioP2;P2;SDS_P1;SDS_P2;PMS_P1;PMS_P2;Temp;Humidity;BMP_temperature;BMP_pressure;BME280_temperature;BME280_humidity;BME280_pressure;Samples;Min_cycle;Max_cycle;Signal;HPM_P1;HPM_P2
2021/12/25 00:00:03;;;;;;;10.83;6.93;;;;;;;;;;4994639;28;20231;-86
2021/12/25 00:02:33;;;;;;;9.60;7.93;;;;;;;;;;4994644;28;20255;-86
2021/12/25 00:05:02;;;;;;;11.17;6.27;;;;;;;;;;4995229;28;20231;-86
2021/12/25 00:07:31;;;;;;;5.87;5.27;;;;;;;;;;4988836;28;20229;-87
2021/12/25 00:10:00;;;;;;;9.23;6.60;;;;;;;;;;4975661;28;20380;-86
2021/12/25 00:12:30;;;;;;;11.27;8.77;;;;;;;;;;4975290;28;20201;-87
2021/12/25 00:14:59;;;;;;;16.77;11.60;;;;;;;;;;4993703;28;20269;-86
2021/12/25 00:17:30;;;;;;;9.00;6.40;;;;;;;;;;4994757;28;20270;-87
2021/12/25 00:19:59;;;;;;;10.83;8.47;;;;;;;;;;4994332;28;20227;-87
2021/12/25 00:22:27;;;;;;;9.90;7.00;;;;;;;;;;4994438;28;20215;-87
2021/12/25 00:24:55;;;;;;;14.03;9.90;;;;;;;;;;4994651;28;20284;-86
2021/12/25 00:27:41;;;;;;;17.83;15.97;;;;;;;;;;4994135;28;20353;-87
2021/12/25 00:30:23;;;;;;;8.67;7.80;;;;;;;;;;4994860;28;20197;-87
2021/12/25 00:32:57;;;;;;;10.17;7.20;;;;;;;;;;4994618;28;20199;-87
2021/12/25 00:35:26;;;;;;;10.57;8.33;;;;;;;;;;4994863;28;20211;-87
2021/12/25 00:37:54;;;;;;;11.33;8.83;;;;;;;;;;4994236;28;20207;-86
2021/12/25 00:40:23;;;;;;;14.03;10.80;;;;;;;;;;4994318;28;20200;-87
2021/12/25 00:42:51;;;;;;;14.53;11.03;;;;;;;;;;4994582;28;20205;-87
2021/12/25 00:45:21;;;;;;;8.83;6.80;;;;;;;;;;4994413;28;20213;-87
2021/12/25 00:47:50;;;;;;;9.93;8.10;;;;;;;;;;4994510;28;20306;-87
2021/12/25 00:50:18;;;;;;;11.87;8.93;;;;;;;;;;4994218;28;20215;-87
2021/12/25 00:52:46;;;;;;;10.83;8.77;;;;;;;;;;4994627;28;20259;-87
2021/12/25 00:55:15;;;;;;;12.03;8.23;;;;;;;;;;4994578;28;20223;-86
2021/12/25 00:57:43;;;;;;;11.43;7.50;;;;;;;;;;4994469;28;20266;-87
2021/12/25 01:00:13;;;;;;;9.37;7.43;;;;;;;;;;4994072;28;20211;-87
2021/12/25 01:02:44;;;;;;;11.87;9.10;;;;;;;;;;4994212;28;20216;-87
2021/12/25 01:05:14;;;;;;;13.57;10.53;;;;;;;;;;4997694;28;20223;-87
2021/12/25 01:07:42;;;;;;;9.37;7.43;;;;;;;;;;4990373;28;20223;-87
2021/12/25 01:10:14;;;;;;;8.37;7.33;;;;;;;;;;4978242;28;20241;-87
2021/12/25 01:12:54;;;;;;;15.00;11.40;;;;;;;;;;4978660;28;20212;-86
2021/12/25 01:15:30;;;;;;;10.30;7.13;;;;;;;;;;4997686;28;20196;-86
2021/12/25 01:18:26;;;;;;;11.43;9.43;;;;;;;;;;4997496;28;20203;-86
2021/12/25 01:21:17;;;;;;;6.00;5.23;;;;;;;;;;4997714;28;20297;-87
2021/12/25 01:29:32;;;;;;;14.13;10.77;;;;;;;;;;4997395;28;20200;-86
2021/12/25 01:35:09;;;;;;;13.10;9.93;;;;;;;;;;4964878;28;20228;-86
2021/12/25 01:37:42;;;;;;;15.23;11.60;;;;;;;;;;4997241;28;20204;-87
2021/12/25 01:40:26;;;;;;;18.30;14.83;;;;;;;;;;4997294;28;20208;-87
2021/12/25 01:48:27;;;;;;;8.50;7.23;;;;;;;;;;4996899;28;20237;-86
2021/12/25 01:50:57;;;;;;;13.13;9.03;;;;;;;;;;4996590;28;20230;-86
2021/12/25 01:53:26;;;;;;;16.43;8.60;;;;;;;;;;4996885;28;20210;-86
2021/12/25 01:55:57;;;;;;;14.20;10.17;;;;;;;;;;4997069;28;20243;-87
2021/12/25 01:58:25;;;;;;;15.23;8.50;;;;;;;;;;4996866;28;20204;-87
2021/12/25 02:00:55;;;;;;;7.07;5.80;;;;;;;;;;4996844;28;20263;-87
2021/12/25 02:03:26;;;;;;;7.43;6.53;;;;;;;;;;4996574;28;20231;-87
2021/12/25 02:05:56;;;;;;;10.93;8.87;;;;;;;;;;4996674;28;20206;-86
2021/12/25 02:08:26;;;;;;;11.07;9.37;;;;;;;;;;4996442;28;20231;-86
2021/12/25 02:10:55;;;;;;;8.67;7.27;;;;;;;;;;4996333;28;20220;-86
2021/12/25 02:13:23;;;;;;;11.47;10.27;;;;;;;;;;4996290;28;20238;-87
2021/12/25 02:15:54;;;;;;;11.87;7.97;;;;;;;;;;4996007;28;20285;-86
2021/12/25 02:18:27;;;;;;;13.43;10.47;;;;;;;;;;4996606;28;20198;-86
2021/12/25 02:21:06;;;;;;;18.20;11.87;;;;;;;;;;4996515;28;20203;-86
2021/12/25 02:23:36;;;;;;;10.30;8.33;;;;;;;;;;4996150;28;20202;-86
2021/12/25 02:26:05;;;;;;;11.10;8.83;;;;;;;;;;4995977;28;20206;-86
2021/12/25 02:28:35;;;;;;;13.53;11.20;;;;;;;;;;4996036;28;20230;-86
2021/12/25 02:31:04;;;;;;;8.33;5.80;;;;;;;;;;4996020;28;20207;-86
2021/12/25 02:33:33;;;;;;;6.73;5.50;;;;;;;;;;4996391;28;20210;-86
2021/12/25 02:36:03;;;;;;;14.67;9.47;;;;;;;;;;4996047;28;20233;-86
2021/12/25 02:38:32;;;;;;;7.03;6.27;;;;;;;;;;4995882;28;20198;-86
2021/12/25 02:41:00;;;;;;;10.50;6.70;;;;;;;;;;4995918;28;20210;-87
2021/12/25 02:43:29;;;;;;;10.67;7.57;;;;;;;;;;4996336;28;20206;-87
2021/12/25 02:46:02;;;;;;;18.27;11.37;;;;;;;;;;4989204;28;20236;-86
2021/12/25 02:48:30;;;;;;;8.30;6.10;;;;;;;;;;4995868;28;20301;-87
2021/12/25 02:50:59;;;;;;;13.03;10.27;;;;;;;;;;4980119;28;20201;-86
2021/12/25 02:53:29;;;;;;;10.27;8.13;;;;;;;;;;4976515;28;20231;-87
2021/12/25 02:55:58;;;;;;;9.80;7.40;;;;;;;;;;4976295;28;20247;-87
2021/12/25 02:58:26;;;;;;;19.50;10.20;;;;;;;;;;4976282;28;20206;-87
2021/12/25 03:00:57;;;;;;;5.23;4.73;;;;;;;;;;4975955;28;20274;-87
2021/12/25 03:03:26;;;;;;;11.10;9.13;;;;;;;;;;4975922;28;20261;-87
2021/12/25 03:05:54;;;;;;;6.70;5.57;;;;;;;;;;4976208;28;20240;-86
2021/12/25 03:08:23;;;;;;;9.97;7.53;;;;;;;;;;4975854;28;20275;-87
2021/12/25 03:10:53;;;;;;;11.03;7.93;;;;;;;;;;4975960;28;20215;-87
2021/12/25 03:13:35;;;;;;;10.70;7.80;;;;;;;;;;4983036;28;20321;-86
2021/12/25 03:16:07;;;;;;;14.33;9.57;;;;;;;;;;5015519;28;20205;-86
2021/12/25 03:18:41;;;;;;;11.37;8.37;;;;;;;;;;5015159;28;20252;-87
2021/12/25 03:21:09;;;;;;;6.60;5.87;;;;;;;;;;4996305;28;20255;-87
2021/12/25 03:23:38;;;;;;;10.23;7.07;;;;;;;;;;4995012;28;20225;-86
2021/12/25 03:26:08;;;;;;;11.30;7.33;;;;;;;;;;4994413;28;20220;-87
2021/12/25 03:28:41;;;;;;;10.47;5.90;;;;;;;;;;4995319;28;20250;-87
2021/12/25 03:31:15;;;;;;;4.77;4.27;;;;;;;;;;4995043;28;20243;-86
2021/12/25 03:33:44;;;;;;;4.73;3.83;;;;;;;;;;4995316;28;20239;-87
2021/12/25 03:36:12;;;;;;;7.47;4.47;;;;;;;;;;4995093;28;20242;-86
2021/12/25 03:38:43;;;;;;;12.27;8.70;;;;;;;;;;4994990;28;20232;-86
2021/12/25 03:41:14;;;;;;;7.10;4.50;;;;;;;;;;4977692;28;20301;-86
2021/12/25 03:43:43;;;;;;;17.93;5.47;;;;;;;;;;4995042;28;20231;-85
2021/12/25 03:46:13;;;;;;;5.87;4.63;;;;;;;;;;4995082;28;20206;-86
2021/12/25 03:49:00;;;;;;;9.67;5.90;;;;;;;;;;4994614;28;20225;-86
2021/12/25 03:59:58;;;;;;;4.90;3.97;;;;;;;;;;5014608;28;20228;-86
2021/12/25 04:02:33;;;;;;;8.83;5.97;;;;;;;;;;5014160;28;20240;-86
2021/12/25 04:05:04;;;;;;;10.30;7.93;;;;;;;;;;5014281;28;20228;-86
2021/12/25 04:10:19;;;;;;;6.53;5.57;;;;;;;;;;5003977;28;20289;-86
2021/12/25 04:12:49;;;;;;;5.73;5.10;;;;;;;;;;5014889;28;20267;-86
2021/12/25 04:15:18;;;;;;;5.43;4.90;;;;;;;;;;5014023;28;20241;-86
2021/12/25 04:17:46;;;;;;;6.47;5.47;;;;;;;;;;5013841;28;20236;-87
2021/12/25 04:20:16;;;;;;;5.00;4.53;;;;;;;;;;5014357;28;20212;-87
2021/12/25 04:22:50;;;;;;;8.80;5.03;;;;;;;;;;5014278;28;20229;-87
2021/12/25 04:25:23;;;;;;;4.33;3.97;;;;;;;;;;5014176;28;20243;-86
2021/12/25 04:27:54;;;;;;;4.63;3.80;;;;;;;;;;5014459;28;20201;-87
2021/12/25 04:30:34;;;;;;;6.20;4.50;;;;;;;;;;5014072;28;20199;-87
2021/12/25 05:03:40;;;;;;;4.50;2.43;;;;;;;;;;4987583;28;20221;-86
2021/12/25 05:06:08;;;;;;;3.33;2.83;;;;;;;;;;5017307;28;20200;-86
2021/12/25 05:08:37;;;;;;;2.70;2.47;;;;;;;;;;5017251;28;20233;-86
2021/12/25 05:11:05;;;;;;;2.60;2.40;;;;;;;;;;5017079;28;20228;-87
2021/12/25 05:13:35;;;;;;;3.40;2.20;;;;;;;;;;5017006;28;20249;-87
2021/12/25 05:16:05;;;;;;;2.50;2.13;;;;;;;;;;5017002;28;20210;-87
2021/12/25 05:18:34;;;;;;;4.17;2.57;;;;;;;;;;5016929;28;20294;-87
2021/12/25 05:21:02;;;;;;;3.60;2.30;;;;;;;;;;5017042;28;20205;-87
2021/12/25 05:23:31;;;;;;;1.60;1.53;;;;;;;;;;5016770;28;20212;-87
2021/12/25 05:25:59;;;;;;;2.77;2.57;;;;;;;;;;5017057;28;20216;-87
2021/12/25 05:28:37;;;;;;;2.17;2.03;;;;;;;;;;5016866;28;20287;-87
2021/12/25 05:31:08;;;;;;;2.53;2.30;;;;;;;;;;5016955;28;20201;-87
2021/12/25 05:33:37;;;;;;;2.90;2.67;;;;;;;;;;5017023;28;20278;-87
2021/12/25 05:36:06;;;;;;;2.10;1.90;;;;;;;;;;5016920;28;20205;-87
2021/12/25 05:38:35;;;;;;;3.53;2.23;;;;;;;;;;5016508;28;20208;-87
2021/12/25 05:41:04;;;;;;;2.03;1.93;;;;;;;;;;5016517;28;20296;-87
2021/12/25 05:43:32;;;;;;;2.00;1.90;;;;;;;;;;5016641;28;20240;-87
2021/12/25 05:46:01;;;;;;;3.23;2.40;;;;;;;;;;5016305;28;20295;-87
2021/12/25 05:48:35;;;;;;;3.07;2.47;;;;;;;;;;5016211;28;20231;-86
2021/12/25 05:51:04;;;;;;;2.60;2.40;;;;;;;;;;5016052;28;20211;-86
2021/12/25 05:53:33;;;;;;;2.90;2.70;;;;;;;;;;5012501;28;20236;-86
2021/12/25 05:56:02;;;;;;;2.50;2.33;;;;;;;;;;4996926;28;20305;-86
2021/12/25 05:58:30;;;;;;;2.23;2.03;;;;;;;;;;4996826;28;20228;-86
2021/12/25 06:00:58;;;;;;;5.40;2.97;;;;;;;;;;4996959;28;20263;-86
2021/12/25 06:03:27;;;;;;;2.67;2.47;;;;;;;;;;4996487;28;20256;-86
2021/12/25 06:05:58;;;;;;;3.13;2.83;;;;;;;;;;4996698;28;20265;-86
2021/12/25 06:08:26;;;;;;;2.40;2.30;;;;;;;;;;4996165;28;20212;-86
2021/12/25 06:10:55;;;;;;;2.03;1.93;;;;;;;;;;4996620;28;20211;-86
2021/12/25 06:13:24;;;;;;;3.27;2.57;;;;;;;;;;4998276;28;20251;-86
2021/12/25 06:15:52;;;;;;;2.50;2.30;;;;;;;;;;5016175;28;20234;-86
2021/12/25 06:18:21;;;;;;;3.97;2.87;;;;;;;;;;5015950;28;20227;-86
2021/12/25 06:20:49;;;;;;;2.10;1.67;;;;;;;;;;5015789;28;20254;-87
2021/12/25 06:23:19;;;;;;;2.03;1.90;;;;;;;;;;5016358;28;20282;-86
2021/12/25 06:25:48;;;;;;;2.50;2.13;;;;;;;;;;5015517;28;20227;-87
2021/12/25 06:28:16;;;;;;;2.10;2.00;;;;;;;;;;5015808;28;20204;-87
2021/12/25 06:30:45;;;;;;;2.03;1.83;;;;;;;;;;5015628;28;20501;-87
2021/12/25 06:33:14;;;;;;;4.53;2.10;;;;;;;;;;5015624;28;20219;-86
2021/12/25 06:35:42;;;;;;;2.10;2.00;;;;;;;;;;5015523;28;20264;-87
2021/12/25 06:38:11;;;;;;;1.97;1.80;;;;;;;;;;5015659;28;20226;-87
2021/12/25 06:40:41;;;;;;;2.87;2.10;;;;;;;;;;5015777;28;20216;-87
2021/12/25 06:43:09;;;;;;;2.20;2.00;;;;;;;;;;5015781;28;20259;-87
2021/12/25 06:45:38;;;;;;;2.30;1.80;;;;;;;;;;5015582;28;20210;-86
2021/12/25 06:48:06;;;;;;;2.00;1.90;;;;;;;;;;5015267;28;20287;-87
2021/12/25 06:50:35;;;;;;;2.97;2.23;;;;;;;;;;5015222;28;20282;-87
2021/12/25 06:53:03;;;;;;;2.57;2.10;;;;;;;;;;5015287;28;20259;-87
2021/12/25 06:55:32;;;;;;;1.60;1.50;;;;;;;;;;5015353;28;20219;-87
2021/12/25 06:58:03;;;;;;;2.20;1.63;;;;;;;;;;5015108;28;20231;-86
2021/12/25 07:00:31;;;;;;;2.00;1.90;;;;;;;;;;5015077;28;20254;-87
2021/12/25 07:03:00;;;;;;;1.50;1.50;;;;;;;;;;5014727;28;20238;-86
2021/12/25 07:05:29;;;;;;;1.73;1.63;;;;;;;;;;5015574;28;20212;-86
2021/12/25 07:07:57;;;;;;;3.40;1.87;;;;;;;;;;5015130;28;20196;-86
2021/12/25 07:10:27;;;;;;;1.50;1.40;;;;;;;;;;5014878;28;20223;-86
2021/12/25 07:12:55;;;;;;;2.73;2.53;;;;;;;;;;5014978;28;20265;-86
2021/12/25 07:15:25;;;;;;;2.50;1.83;;;;;;;;;;5014471;28;20251;-86
2021/12/25 07:17:53;;;;;;;1.40;1.30;;;;;;;;;;5015390;28;20212;-87
2021/12/25 07:20:22;;;;;;;1.80;1.70;;;;;;;;;;5014763;28;20207;-87
2021/12/25 07:22:50;;;;;;;1.67;1.57;;;;;;;;;;5014874;28;20226;-87
2021/12/25 07:25:19;;;;;;;2.03;1.93;;;;;;;;;;5014797;28;20215;-86
2021/12/25 07:27:47;;;;;;;2.13;1.93;;;;;;;;;;5014550;28;20295;-86
2021/12/25 07:30:16;;;;;;;1.60;1.50;;;;;;;;;;5014536;28;20289;-86
2021/12/25 07:32:45;;;;;;;2.10;2.00;;;;;;;;;;5014877;28;20214;-87
2021/12/25 07:35:14;;;;;;;1.23;1.23;;;;;;;;;;5014959;28;20311;-86
2021/12/25 07:37:42;;;;;;;1.80;1.70;;;;;;;;;;5015037;28;20509;-87
2021/12/25 07:40:11;;;;;;;1.73;1.63;;;;;;;;;;5014925;28;20208;-86
2021/12/25 07:42:40;;;;;;;2.23;2.13;;;;;;;;;;5014700;28;20454;-86
2021/12/25 07:45:09;;;;;;;1.80;1.70;;;;;;;;;;5014635;28;20298;-86
2021/12/25 07:47:40;;;;;;;1.80;1.70;;;;;;;;;;5015090;28;20207;-87
2021/12/25 07:50:11;;;;;;;2.93;2.27;;;;;;;;;;5014552;28;20243;-88
2021/12/25 07:52:39;;;;;;;2.20;2.10;;;;;;;;;;5014406;28;20206;-88
2021/12/25 07:55:08;;;;;;;3.60;2.17;;;;;;;;;;4997395;28;20211;-87
2021/12/25 07:57:37;;;;;;;2.33;2.13;;;;;;;;;;4995209;28;20227;-88
2021/12/25 08:00:08;;;;;;;1.40;1.40;;;;;;;;;;4994988;28;20485;-87
2021/12/25 08:02:37;;;;;;;3.17;2.07;;;;;;;;;;4995044;28;20231;-87
2021/12/25 08:05:09;;;;;;;2.23;2.00;;;;;;;;;;4994872;28;20200;-87
2021/12/25 08:07:39;;;;;;;1.67;1.67;;;;;;;;;;4995056;28;20235;-87
2021/12/25 08:10:13;;;;;;;1.97;1.87;;;;;;;;;;4994871;28;20270;-88
2021/12/25 08:12:43;;;;;;;1.80;1.70;;;;;;;;;;4995877;28;20258;-87
2021/12/25 08:15:12;;;;;;;1.73;1.63;;;;;;;;;;5013225;28;20267;-88
2021/12/25 08:17:41;;;;;;;4.93;1.73;;;;;;;;;;5018877;28;20212;-88
2021/12/25 08:20:10;;;;;;;3.10;1.80;;;;;;;;;;5018218;28;20207;-88
2021/12/25 08:22:41;;;;;;;2.30;1.90;;;;;;;;;;5018613;28;20211;-88
2021/12/25 08:25:11;;;;;;;1.70;1.60;;;;;;;;;;5018280;28;20514;-88
2021/12/25 08:27:41;;;;;;;1.83;1.73;;;;;;;;;;5000790;28;20257;-88
2021/12/25 08:30:11;;;;;;;1.73;1.57;;;;;;;;;;5017795;28;20227;-88
2021/12/25 08:32:40;;;;;;;1.67;1.63;;;;;;;;;;5018241;28;20257;-88
2021/12/25 08:35:09;;;;;;;1.67;1.57;;;;;;;;;;5018144;28;20282;-88
2021/12/25 08:37:37;;;;;;;2.27;1.87;;;;;;;;;;5018192;28;20208;-88
2021/12/25 08:40:09;;;;;;;1.93;1.83;;;;;;;;;;5018059;28;20224;-88
2021/12/25 08:42:44;;;;;;;3.00;2.20;;;;;;;;;;5018147;28;20238;-88
2021/12/25 08:45:30;;;;;;;1.73;1.63;;;;;;;;;;5018063;28;20259;-88
2021/12/25 08:47:59;;;;;;;1.60;1.50;;;;;;;;;;5018170;28;20196;-87
2021/12/25 08:50:28;;;;;;;1.70;1.60;;;;;;;;;;5017903;28;20483;-87
2021/12/25 08:52:56;;;;;;;1.50;1.40;;;;;;;;;;5017830;28;20200;-87
2021/12/25 08:55:26;;;;;;;1.67;1.60;;;;;;;;;;5018218;28;20210;-88
2021/12/25 08:57:54;;;;;;;2.20;2.10;;;;;;;;;;5017803;28;20210;-88
2021/12/25 09:00:23;;;;;;;1.83;1.73;;;;;;;;;;5017538;28;20242;-87
2021/12/25 09:02:52;;;;;;;1.53;1.50;;;;;;;;;;5017619;28;20223;-88
2021/12/25 09:05:21;;;;;;;1.27;1.27;;;;;;;;;;5017310;28;20204;-88
2021/12/25 09:07:50;;;;;;;1.60;1.50;;;;;;;;;;5017486;28;20208;-88
2021/12/25 09:10:19;;;;;;;3.70;1.80;;;;;;;;;;5017259;28;20214;-87
2021/12/25 09:12:50;;;;;;;1.63;1.53;;;;;;;;;;5017627;28;20516;-87
2021/12/25 09:15:19;;;;;;;1.60;1.50;;;;;;;;;;5016912;28;20490;-88
2021/12/25 09:17:48;;;;;;;1.37;1.37;;;;;;;;;;5017245;28;20199;-88
2021/12/25 09:20:18;;;;;;;1.50;1.40;;;;;;;;;;5017063;28;20234;-88
2021/12/25 09:22:46;;;;;;;1.43;1.43;;;;;;;;;;5017382;28;20226;-88
2021/12/25 09:25:15;;;;;;;2.30;1.50;;;;;;;;;;5015710;28;20204;-87
2021/12/25 09:27:44;;;;;;;1.30;1.30;;;;;;;;;;5017190;28;20212;-88
2021/12/25 09:30:15;;;;;;;1.80;1.40;;;;;;;;;;5016759;28;20211;-87
2021/12/25 09:32:43;;;;;;;7.17;2.00;;;;;;;;;;5016917;28;20219;-88
2021/12/25 09:35:12;;;;;;;3.03;1.60;;;;;;;;;;5017227;28;20265;-87
2021/12/25 09:37:41;;;;;;;1.80;1.70;;;;;;;;;;5016542;28;20207;-87
2021/12/25 09:40:10;;;;;;;1.47;1.37;;;;;;;;;;5016531;28;20208;-88
2021/12/25 09:42:40;;;;;;;1.23;1.20;;;;;;;;;;4999189;28;20238;-87
2021/12/25 09:45:10;;;;;;;1.57;1.47;;;;;;;;;;5016704;28;20258;-87
2021/12/25 09:47:41;;;;;;;1.73;1.67;;;;;;;;;;5017052;28;20191;-88
2021/12/25 09:50:10;;;;;;;1.33;1.33;;;;;;;;;;5017039;28;20261;-87
2021/12/25 09:52:39;;;;;;;2.00;1.37;;;;;;;;;;5016576;28;20235;-87
2021/12/25 09:55:08;;;;;;;1.53;1.43;;;;;;;;;;4999505;28;20212;-87
2021/12/25 09:57:37;;;;;;;2.00;1.30;;;;;;;;;;4996740;28;20200;-87
2021/12/25 10:00:07;;;;;;;1.60;1.50;;;;;;;;;;4997015;28;20213;-88
2021/12/25 10:02:44;;;;;;;2.30;1.40;;;;;;;;;;4996692;28;20292;-87
2021/12/25 10:05:13;;;;;;;1.40;1.40;;;;;;;;;;4997254;28;20267;-87
2021/12/25 10:07:41;;;;;;;1.50;1.40;;;;;;;;;;4996991;28;20232;-87
2021/12/25 10:10:13;;;;;;;1.20;1.20;;;;;;;;;;4996188;28;20256;-87
2021/12/25 10:12:44;;;;;;;1.50;1.40;;;;;;;;;;4996388;28;20282;-87
2021/12/25 10:15:14;;;;;;;1.53;1.30;;;;;;;;;;5008831;28;20232;-87
2021/12/25 10:17:48;;;;;;;1.60;1.50;;;;;;;;;;5016598;28;20227;-87
2021/12/25 10:20:17;;;;;;;1.40;1.40;;;;;;;;;;5016108;28;20199;-87
2021/12/25 10:22:56;;;;;;;1.30;1.30;;;;;;;;;;5016161;28;20412;-87
2021/12/25 10:25:27;;;;;;;1.50;1.40;;;;;;;;;;4998987;28;20201;-87
2021/12/25 10:27:58;;;;;;;1.20;1.20;;;;;;;;;;5015825;28;20220;-87
2021/12/25 10:30:32;;;;;;;1.47;1.40;;;;;;;;;;5016213;28;20204;-87
2021/12/25 10:33:02;;;;;;;1.80;1.50;;;;;;;;;;5015666;28;20283;-87
2021/12/25 10:35:30;;;;;;;1.20;1.20;;;;;;;;;;5016003;28;20200;-87
2021/12/25 10:37:59;;;;;;;2.50;1.73;;;;;;;;;;5015940;28;20243;-88
2021/12/25 10:40:31;;;;;;;1.30;1.30;;;;;;;;;;5015748;28;20228;-87
2021/12/25 10:43:01;;;;;;;1.30;1.30;;;;;;;;;;5015526;28;20230;-87
2021/12/25 10:45:31;;;;;;;1.63;1.53;;;;;;;;;;5016132;28;20207;-87
2021/12/25 10:48:05;;;;;;;2.33;1.20;;;;;;;;;;5015539;28;20205;-87
2021/12/25 10:50:35;;;;;;;1.23;1.23;;;;;;;;;;5015686;28;20241;-87
2021/12/25 10:53:10;;;;;;;1.77;1.67;;;;;;;;;;5015314;28;20252;-87
2021/12/25 10:55:38;;;;;;;1.60;1.50;;;;;;;;;;5015375;28;20213;-87
2021/12/25 10:58:18;;;;;;;1.33;1.33;;;;;;;;;;5015649;28;20291;-87
2021/12/25 11:00:50;;;;;;;1.40;1.40;;;;;;;;;;5015269;28;20235;-87
2021/12/25 11:03:26;;;;;;;1.63;1.33;;;;;;;;;;5015246;28;20220;-87
2021/12/25 11:05:55;;;;;;;1.20;1.20;;;;;;;;;;5015634;28;20197;-88
2021/12/25 11:08:25;;;;;;;1.30;1.30;;;;;;;;;;5015277;28;20258;-87
2021/12/25 11:10:54;;;;;;;1.67;1.40;;;;;;;;;;5015436;28;20235;-87
2021/12/25 11:13:24;;;;;;;1.50;1.40;;;;;;;;;;5015427;28;20263;-87
2021/12/25 11:16:00;;;;;;;1.23;1.23;;;;;;;;;;5014456;28;20293;-88
2021/12/25 11:18:30;;;;;;;1.47;1.40;;;;;;;;;;5015443;28;20207;-87
2021/12/25 11:20:59;;;;;;;1.80;1.70;;;;;;;;;;5015299;28;20244;-87
2021/12/25 11:23:29;;;;;;;2.37;2.20;;;;;;;;;;5014759;28;20254;-87
2021/12/25 11:25:58;;;;;;;2.33;2.10;;;;;;;;;;5015004;28;20216;-87
2021/12/25 11:28:26;;;;;;;2.37;2.17;;;;;;;;;;5014877;28;20287;-87
2021/12/25 11:30:54;;;;;;;1.80;1.70;;;;;;;;;;5015053;28;20207;-87
2021/12/25 11:33:23;;;;;;;2.43;2.23;;;;;;;;;;5014500;28;20229;-87
2021/12/25 11:35:53;;;;;;;1.43;1.43;;;;;;;;;;5015297;28;20212;-88
2021/12/25 11:38:21;;;;;;;1.37;1.33;;;;;;;;;;5014714;28;20213;-87
2021/12/25 11:40:53;;;;;;;2.60;2.40;;;;;;;;;;5014888;28;20254;-88
2021/12/25 11:43:34;;;;;;;4.00;2.40;;;;;;;;;;5014841;28;20250;-87
2021/12/25 11:46:06;;;;;;;2.53;1.90;;;;;;;;;;5014991;28;20231;-87
2021/12/25 11:48:34;;;;;;;1.60;1.50;;;;;;;;;;5014067;28;20275;-88
2021/12/25 11:51:05;;;;;;;1.40;1.30;;;;;;;;;;5014753;28;20291;-87
2021/12/25 11:53:46;;;;;;;1.77;1.67;;;;;;;;;;5014215;28;20229;-87
2021/12/25 11:56:27;;;;;;;1.63;1.53;;;;;;;;;;5014848;28;20207;-87
2021/12/25 11:58:56;;;;;;;2.13;1.27;;;;;;;;;;5014748;28;20223;-87
2021/12/25 12:01:29;;;;;;;1.60;1.37;;;;;;;;;;5014379;28;20211;-87
2021/12/25 12:03:59;;;;;;;2.47;1.60;;;;;;;;;;5014244;28;20247;-87
2021/12/25 12:06:46;;;;;;;1.67;1.53;;;;;;;;;;5014597;28;20213;-87
2021/12/25 12:09:16;;;;;;;1.73;1.63;;;;;;;;;;5014475;28;20212;-88
2021/12/25 12:11:45;;;;;;;1.07;1.07;;;;;;;;;;5014365;28;20208;-87
2021/12/25 12:14:18;;;;;;;1.83;1.40;;;;;;;;;;5014562;28;20215;-87
2021/12/25 12:16:48;;;;;;;1.80;1.50;;;;;;;;;;5014429;28;20215;-88
2021/12/25 12:19:38;;;;;;;1.70;1.40;;;;;;;;;;5014454;28;20208;-88
2021/12/25 12:22:29;;;;;;;3.70;2.03;;;;;;;;;;5014556;28;20205;-87
2021/12/25 12:25:18;;;;;;;1.60;1.50;;;;;;;;;;5014685;28;20232;-88
2021/12/25 12:27:51;;;;;;;1.57;1.20;;;;;;;;;;5014195;28;20212;-87
2021/12/25 12:30:40;;;;;;;1.43;1.30;;;;;;;;;;5015065;28;20212;-88
2021/12/25 12:33:23;;;;;;;1.30;1.30;;;;;;;;;;5014193;28;20234;-87
2021/12/25 12:35:52;;;;;;;1.30;1.30;;;;;;;;;;5006166;28;20206;-87
2021/12/25 12:38:37;;;;;;;1.83;1.73;;;;;;;;;;5014737;28;20235;-87
2021/12/25 12:41:18;;;;;;;1.40;1.30;;;;;;;;;;5014726;28;20189;-88
2021/12/25 12:44:02;;;;;;;1.50;1.40;;;;;;;;;;5014194;28;20231;-87
2021/12/25 12:46:50;;;;;;;1.17;1.17;;;;;;;;;;5014098;28;20196;-87
2021/12/25 12:49:19;;;;;;;1.30;1.30;;;;;;;;;;5004966;28;20201;-88
2021/12/25 12:51:49;;;;;;;1.50;1.40;;;;;;;;;;5014561;28;20227;-87
2021/12/25 12:54:32;;;;;;;1.60;1.50;;;;;;;;;;5004024;28;20255;-88
2021/12/25 12:57:04;;;;;;;1.43;1.33;;;;;;;;;;4994463;28;20204;-88
2021/12/25 12:59:43;;;;;;;1.23;1.23;;;;;;;;;;4996703;28;20275;-87
2021/12/25 13:02:12;;;;;;;1.47;1.40;;;;;;;;;;4998102;28;20235;-87
2021/12/25 13:04:45;;;;;;;1.40;1.30;;;;;;;;;;4998713;28;20303;-88
2021/12/25 13:07:14;;;;;;;1.47;1.37;;;;;;;;;;4998478;28;20214;-88
2021/12/25 13:09:47;;;;;;;1.23;1.13;;;;;;;;;;4998214;28;20204;-87
2021/12/25 13:12:36;;;;;;;1.10;1.10;;;;;;;;;;4997910;28;20235;-87
2021/12/25 13:15:09;;;;;;;1.37;1.37;;;;;;;;;;5006717;28;20263;-88
2021/12/25 13:17:38;;;;;;;1.20;1.20;;;;;;;;;;5017854;28;20203;-89
2021/12/25 13:20:08;;;;;;;2.83;1.33;;;;;;;;;;5017130;28;20235;-87
2021/12/25 13:22:36;;;;;;;1.53;1.43;;;;;;;;;;5017356;28;20258;-87
2021/12/25 13:25:09;;;;;;;1.20;1.20;;;;;;;;;;5017344;28;20223;-88
2021/12/25 13:27:39;;;;;;;1.60;1.50;;;;;;;;;;5017806;28;20235;-88
2021/12/25 13:30:09;;;;;;;1.40;1.27;;;;;;;;;;5017506;28;20212;-87
2021/12/25 13:32:37;;;;;;;1.30;1.30;;;;;;;;;;5017188;28;20204;-88
2021/12/25 13:35:06;;;;;;;1.23;1.10;;;;;;;;;;5017098;28;20207;-88
2021/12/25 13:37:34;;;;;;;1.50;1.40;;;;;;;;;;5016812;28;20231;-88
2021/12/25 13:40:07;;;;;;;1.30;1.30;;;;;;;;;;4999824;28;20223;-87
2021/12/25 13:42:36;;;;;;;2.07;1.83;;;;;;;;;;5017457;28;20232;-88
2021/12/25 13:45:06;;;;;;;1.10;1.10;;;;;;;;;;5016778;28;20270;-88
2021/12/25 13:47:38;;;;;;;1.23;1.23;;;;;;;;;;5016561;28;20214;-87
2021/12/25 13:50:08;;;;;;;1.20;1.20;;;;;;;;;;5017010;28;20232;-88
2021/12/25 13:52:38;;;;;;;1.53;1.43;;;;;;;;;;5017229;28;20227;-87
2021/12/25 13:55:10;;;;;;;1.40;1.40;;;;;;;;;;4999975;28;20205;-87
2021/12/25 13:57:41;;;;;;;1.50;1.40;;;;;;;;;;4997097;28;20193;-87
2021/12/25 14:00:13;;;;;;;1.17;1.17;;;;;;;;;;4996990;28;20208;-87
2021/12/25 14:02:42;;;;;;;1.27;1.27;;;;;;;;;;4997180;28;20209;-87
2021/12/25 14:05:11;;;;;;;2.10;2.00;;;;;;;;;;4996854;28;20210;-87
2021/12/25 14:07:41;;;;;;;1.30;1.30;;;;;;;;;;4997474;28;20229;-87
2021/12/25 14:10:11;;;;;;;1.97;1.40;;;;;;;;;;4996541;28;20236;-88
2021/12/25 14:12:41;;;;;;;1.33;1.33;;;;;;;;;;4996827;28;20227;-87
2021/12/25 14:15:10;;;;;;;1.83;1.73;;;;;;;;;;5006299;28;20286;-88
2021/12/25 14:17:42;;;;;;;1.83;1.60;;;;;;;;;;5016457;28;20232;-87
2021/12/25 14:20:13;;;;;;;1.43;1.43;;;;;;;;;;5016306;28;20216;-87
2021/12/25 14:22:43;;;;;;;1.63;1.53;;;;;;;;;;5016101;28;20208;-87
2021/12/25 14:25:20;;;;;;;2.17;1.50;;;;;;;;;;5015940;28;20236;-87
2021/12/25 14:28:03;;;;;;;1.63;1.53;;;;;;;;;;5015992;28;20200;-88
2021/12/25 14:30:32;;;;;;;1.23;1.23;;;;;;;;;;5014931;28;20223;-88
2021/12/25 14:33:02;;;;;;;1.93;1.83;;;;;;;;;;5015701;28;20211;-87
2021/12/25 14:35:31;;;;;;;1.43;1.40;;;;;;;;;;5016376;28;20213;-87
2021/12/25 14:38:00;;;;;;;3.00;1.80;;;;;;;;;;5015493;28;20203;-88
2021/12/25 14:40:35;;;;;;;1.20;1.20;;;;;;;;;;5016218;28;20393;-87
2021/12/25 14:43:05;;;;;;;1.57;1.50;;;;;;;;;;5015866;28;20223;-88
2021/12/25 14:45:44;;;;;;;1.90;1.70;;;;;;;;;;5015933;28;20199;-88
2021/12/25 14:48:14;;;;;;;1.47;1.43;;;;;;;;;;5015942;28;20199;-87
2021/12/25 14:50:43;;;;;;;1.40;1.30;;;;;;;;;;5016139;28;20267;-88
2021/12/25 14:53:14;;;;;;;2.47;1.50;;;;;;;;;;5014437;28;20228;-87
2021/12/25 14:55:44;;;;;;;1.60;1.50;;;;;;;;;;4995718;28;20227;-87
2021/12/25 14:58:15;;;;;;;1.40;1.30;;;;;;;;;;4996147;28;20200;-87
2021/12/25 15:00:44;;;;;;;1.20;1.20;;;;;;;;;;4995788;28;20212;-87
2021/12/25 15:03:19;;;;;;;2.23;2.07;;;;;;;;;;4995632;28;20247;-88
2021/12/25 15:05:50;;;;;;;1.33;1.27;;;;;;;;;;4995495;28;20211;-87
2021/12/25 15:08:36;;;;;;;1.47;1.43;;;;;;;;;;4996030;28;20204;-87
2021/12/25 15:11:08;;;;;;;2.03;1.63;;;;;;;;;;4995810;28;20223;-88
2021/12/25 15:13:38;;;;;;;1.53;1.43;;;;;;;;;;4995684;28;20212;-87
2021/12/25 15:16:07;;;;;;;1.70;1.33;;;;;;;;;;5012415;28;20231;-87
2021/12/25 15:18:39;;;;;;;1.27;1.27;;;;;;;;;;5015287;28;20258;-87
2021/12/25 15:21:18;;;;;;;2.77;1.70;;;;;;;;;;5015184;28;20228;-88
2021/12/25 15:23:48;;;;;;;4.43;1.70;;;;;;;;;;5014482;28;20203;-87
2021/12/25 15:26:17;;;;;;;1.67;1.57;;;;;;;;;;5015071;28;20199;-87
2021/12/25 15:28:55;;;;;;;1.70;1.60;;;;;;;;;;5015002;28;20208;-87
2021/12/25 15:31:25;;;;;;;1.67;1.57;;;;;;;;;;5014945;28;20191;-87
2021/12/25 15:33:56;;;;;;;1.53;1.47;;;;;;;;;;5015055;28;20254;-87
2021/12/25 15:36:25;;;;;;;2.60;2.03;;;;;;;;;;5015068;28;20207;-87
2021/12/25 15:38:55;;;;;;;1.17;1.17;;;;;;;;;;5015355;28;20211;-87
2021/12/25 15:41:24;;;;;;;1.40;1.40;;;;;;;;;;5014854;28;20199;-87
2021/12/25 15:43:53;;;;;;;2.57;2.00;;;;;;;;;;5015126;28;20203;-87
2021/12/25 15:46:22;;;;;;;1.47;1.37;;;;;;;;;;5014483;28;20214;-87
2021/12/25 15:48:50;;;;;;;1.20;1.20;;;;;;;;;;5014581;28;20211;-87
2021/12/25 15:51:20;;;;;;;1.80;1.40;;;;;;;;;;5015034;28;20311;-87
2021/12/25 15:53:53;;;;;;;2.37;1.40;;;;;;;;;;5014801;28;20198;-87
2021/12/25 15:56:25;;;;;;;1.90;1.80;;;;;;;;;;5014904;28;20227;-87
2021/12/25 15:58:54;;;;;;;1.40;1.40;;;;;;;;;;5014362;28;20191;-87